Bearcreek, Montana
Current Conditions -  °F | °C
As of 5:15 AM on Saturday 01 Nov 2014 (Local Time) from KPOY Reporting Station
Clear Clear  
Wind Chill: 41°   Ceiling: Unl
Heat Index: 46°   Visibility: 10mi
Dew Point: 21°   Wind: 10mph
Humidity: 37%   Direction: 130°SE
Pressure: 29.78"   Gusts: NA
Location:  45.16°N, 109.16°W
Report Text: KPOY 011115Z AUTO 13009KT 10SM CLR 08/M06 A2978 RMK AO2
Loading
Personal Weather Stations






























Interactive Weather Map
Tropical Storm Tracking
New forecast layout! Learn more

10-Day Weather Forecast

Advertisements
Track Severe Weather on mobile